sensor_id;sensor_type;location;lat;lon;timestamp;pressure;altitude;pressure_sealevel;temperature;humidity
9740;BME280;4909;42.680;26.324;2023-04-01T00:01:03;97871.66;;;11.22;77.36
9740;BME280;4909;42.680;26.324;2023-04-01T00:03:30;97868.34;;;11.33;76.68
9740;BME280;4909;42.680;26.324;2023-04-01T00:05:59;97885.63;;;11.40;77.08
9740;BME280;4909;42.680;26.324;2023-04-01T00:08:27;97878.03;;;11.48;76.25
9740;BME280;4909;42.680;26.324;2023-04-01T00:10:54;97882.47;;;11.33;76.96
9740;BME280;4909;42.680;26.324;2023-04-01T00:13:21;97878.53;;;11.41;76.63
9740;BME280;4909;42.680;26.324;2023-04-01T00:15:48;97878.03;;;11.48;76.00
9740;BME280;4909;42.680;26.324;2023-04-01T00:18:16;97879.16;;;11.30;76.81
9740;BME280;4909;42.680;26.324;2023-04-01T00:20:44;97870.94;;;11.19;77.42
9740;BME280;4909;42.680;26.324;2023-04-01T00:23:11;97847.72;;;11.08;77.59
9740;BME280;4909;42.680;26.324;2023-04-01T00:25:37;97868.22;;;11.20;77.72
9740;BME280;4909;42.680;26.324;2023-04-01T00:28:04;97852.94;;;11.24;77.80
9740;BME280;4909;42.680;26.324;2023-04-01T00:30:31;97855.25;;;11.30;77.52
9740;BME280;4909;42.680;26.324;2023-04-01T00:32:58;97849.78;;;11.03;80.06
9740;BME280;4909;42.680;26.324;2023-04-01T00:35:26;97849.31;;;11.11;80.30
9740;BME280;4909;42.680;26.324;2023-04-01T00:37:53;97842.91;;;11.29;79.85
9740;BME280;4909;42.680;26.324;2023-04-01T00:40:27;97830.72;;;11.11;80.91
9740;BME280;4909;42.680;26.324;2023-04-01T00:42:54;97823.88;;;11.07;81.52
9740;BME280;4909;42.680;26.324;2023-04-01T00:45:39;97825.13;;;11.15;80.96
9740;BME280;4909;42.680;26.324;2023-04-01T00:48:10;97810.63;;;11.07;81.52
9740;BME280;4909;42.680;26.324;2023-04-01T00:50:39;97810.41;;;11.10;81.93
9740;BME280;4909;42.680;26.324;2023-04-01T00:53:08;97807.13;;;11.20;81.37
9740;BME280;4909;42.680;26.324;2023-04-01T00:55:37;97807.41;;;11.16;80.96
9740;BME280;4909;42.680;26.324;2023-04-01T00:58:09;97804.66;;;11.17;80.41
9740;BME280;4909;42.680;26.324;2023-04-01T01:00:38;97792.47;;;10.99;79.84
9740;BME280;4909;42.680;26.324;2023-04-01T01:03:05;97805.34;;;10.91;81.02
9740;BME280;4909;42.680;26.324;2023-04-01T01:05:43;97777.59;;;10.97;80.88
9740;BME280;4909;42.680;26.324;2023-04-01T01:08:23;97806.81;;;11.11;80.80
9740;BME280;4909;42.680;26.324;2023-04-01T01:10:55;97801.31;;;11.14;81.03
9740;BME280;4909;42.680;26.324;2023-04-01T01:13:26;97798.09;;;11.09;80.54
9740;BME280;4909;42.680;26.324;2023-04-01T01:16:01;97798.56;;;11.01;81.25
9740;BME280;4909;42.680;26.324;2023-04-01T01:18:35;97802.78;;;10.89;81.75
9740;BME280;4909;42.680;26.324;2023-04-01T01:24:17;97793.88;;;10.90;81.85
9740;BME280;4909;42.680;26.324;2023-04-01T01:26:57;97785.94;;;11.05;81.89
9740;BME280;4909;42.680;26.324;2023-04-01T01:33:02;97780.94;;;11.14;81.31
9740;BME280;4909;42.680;26.324;2023-04-01T01:35:37;97779.78;;;11.04;81.94
9740;BME280;4909;42.680;26.324;2023-04-01T01:38:07;97777.63;;;11.11;81.67
9740;BME280;4909;42.680;26.324;2023-04-01T01:40:36;97787.09;;;11.15;81.41
9740;BME280;4909;42.680;26.324;2023-04-01T01:43:09;97765.84;;;11.01;81.19
9740;BME280;4909;42.680;26.324;2023-04-01T01:45:40;97792.97;;;11.06;81.92
9740;BME280;4909;42.680;26.324;2023-04-01T01:48:11;97792.97;;;11.06;81.72
9740;BME280;4909;42.680;26.324;2023-04-01T01:50:41;97792.13;;;10.75;83.38
9740;BME280;4909;42.680;26.324;2023-04-01T01:53:10;97785.75;;;10.64;85.81
9740;BME280;4909;42.680;26.324;2023-04-01T01:55:39;97772.00;;;10.71;85.81
9740;BME280;4909;42.680;26.324;2023-04-01T01:58:10;97763.81;;;10.90;84.86
9740;BME280;4909;42.680;26.324;2023-04-01T02:00:38;97767.81;;;10.97;84.72
9740;BME280;4909;42.680;26.324;2023-04-01T02:03:07;97772.50;;;11.08;84.46
9740;BME280;4909;42.680;26.324;2023-04-01T02:05:34;97768.78;;;11.10;84.26
9740;BME280;4909;42.680;26.324;2023-04-01T02:08:06;97769.06;;;11.06;84.03
9740;BME280;4909;42.680;26.324;2023-04-01T02:10:37;97768.63;;;11.13;83.96
9740;BME280;4909;42.680;26.324;2023-04-01T02:13:10;97766.72;;;11.29;83.11
9740;BME280;4909;42.680;26.324;2023-04-01T02:15:44;97772.31;;;11.39;82.14
9740;BME280;4909;42.680;26.324;2023-04-01T02:18:13;97763.41;;;11.40;82.12
9740;BME280;4909;42.680;26.324;2023-04-01T02:20:41;97763.50;;;11.24;82.54
9740;BME280;4909;42.680;26.324;2023-04-01T02:23:10;97763.41;;;11.12;83.37
9740;BME280;4909;42.680;26.324;2023-04-01T02:25:39;97764.91;;;11.16;83.71
9740;BME280;4909;42.680;26.324;2023-04-01T02:28:07;97764.16;;;11.28;83.03
9740;BME280;4909;42.680;26.324;2023-04-01T02:30:36;97762.84;;;11.21;83.66
9740;BME280;4909;42.680;26.324;2023-04-01T02:33:05;97698.97;;;10.94;83.50
9740;BME280;4909;42.680;26.324;2023-04-01T02:35:34;97755.53;;;11.24;83.34
9740;BME280;4909;42.680;26.324;2023-04-01T02:38:02;97756.88;;;11.31;82.26
9740;BME280;4909;42.680;26.324;2023-04-01T02:40:41;97751.13;;;11.09;82.37
9740;BME280;4909;42.680;26.324;2023-04-01T02:43:07;97745.84;;;11.09;82.51
9740;BME280;4909;42.680;26.324;2023-04-01T02:45:34;97751.91;;;11.11;83.02
9740;BME280;4909;42.680;26.324;2023-04-01T02:48:01;97748.47;;;11.09;82.43
9740;BME280;4909;42.680;26.324;2023-04-01T02:50:28;97739.88;;;11.20;81.69
9740;BME280;4909;42.680;26.324;2023-04-01T02:52:54;97748.31;;;10.98;83.04
9740;BME280;4909;42.680;26.324;2023-04-01T02:55:21;97748.28;;;10.84;84.46
9740;BME280;4909;42.680;26.324;2023-04-01T02:57:49;97739.03;;;10.75;86.23
9740;BME280;4909;42.680;26.324;2023-04-01T03:00:17;97732.28;;;10.70;86.63
9740;BME280;4909;42.680;26.324;2023-04-01T03:02:43;97731.84;;;10.77;86.96
9740;BME280;4909;42.680;26.324;2023-04-01T03:05:10;97728.09;;;10.96;86.36
9740;BME280;4909;42.680;26.324;2023-04-01T03:07:38;97732.84;;;11.05;86.33
9740;BME280;4909;42.680;26.324;2023-04-01T03:10:06;97724.88;;;11.05;85.48
9740;BME280;4909;42.680;26.324;2023-04-01T03:12:32;97726.59;;;11.06;85.86
9740;BME280;4909;42.680;26.324;2023-04-01T03:15:01;97725.06;;;11.16;85.56
9740;BME280;4909;42.680;26.324;2023-04-01T03:17:28;97715.13;;;11.19;84.97
9740;BME280;4909;42.680;26.324;2023-04-01T03:19:54;97715.69;;;11.10;85.69
9740;BME280;4909;42.680;26.324;2023-04-01T03:22:21;97715.69;;;11.10;86.28
9740;BME280;4909;42.680;26.324;2023-04-01T03:24:48;97728.38;;;11.05;85.24
9740;BME280;4909;42.680;26.324;2023-04-01T03:27:15;97720.75;;;10.85;86.65
9740;BME280;4909;42.680;26.324;2023-04-01T03:29:42;97724.13;;;11.03;85.75
9740;BME280;4909;42.680;26.324;2023-04-01T03:32:10;97726.59;;;11.06;85.22
9740;BME280;4909;42.680;26.324;2023-04-01T03:34:37;97719.75;;;11.02;84.25
9740;BME280;4909;42.680;26.324;2023-04-01T03:37:03;97725.06;;;11.02;84.38
9740;BME280;4909;42.680;26.324;2023-04-01T03:39:31;97731.78;;;10.93;84.42
9740;BME280;4909;42.680;26.324;2023-04-01T03:41:58;97728.56;;;10.88;84.31
9740;BME280;4909;42.680;26.324;2023-04-01T03:44:25;97725.72;;;10.91;84.55
9740;BME280;4909;42.680;26.324;2023-04-01T03:46:51;97726.56;;;10.92;84.94
9740;BME280;4909;42.680;26.324;2023-04-01T03:49:20;97730.97;;;11.07;83.73
9740;BME280;4909;42.680;26.324;2023-04-01T03:51:46;97726.38;;;10.95;83.83
9740;BME280;4909;42.680;26.324;2023-04-01T03:54:13;97729.03;;;10.95;84.01
9740;BME280;4909;42.680;26.324;2023-04-01T03:56:40;97730.97;;;11.07;83.49
9740;BME280;4909;42.680;26.324;2023-04-01T03:59:07;97730.09;;;11.06;83.94
9740;BME280;4909;42.680;26.324;2023-04-01T04:01:35;97727.81;;;11.00;84.08
9740;BME280;4909;42.680;26.324;2023-04-01T04:04:01;97726.28;;;10.96;84.31
9740;BME280;4909;42.680;26.324;2023-04-01T04:06:29;97730.75;;;10.96;83.92
9740;BME280;4909;42.680;26.324;2023-04-01T04:08:56;97725.06;;;11.02;84.06
9740;BME280;4909;42.680;26.324;2023-04-01T04:11:23;97733.22;;;10.99;83.70
9740;BME280;4909;42.680;26.324;2023-04-01T04:13:51;97717.94;;;10.88;84.40
9740;BME280;4909;42.680;26.324;2023-04-01T04:16:18;97729.22;;;10.92;85.35
9740;BME280;4909;42.680;26.324;2023-04-01T04:18:44;97723.34;;;11.01;84.40
9740;BME280;4909;42.680;26.324;2023-04-01T04:21:13;97725.91;;;10.88;84.95
9740;BME280;4909;42.680;26.324;2023-04-01T04:23:42;97716.88;;;10.90;84.62
9740;BME280;4909;42.680;26.324;2023-04-01T04:26:11;97716.63;;;11.09;84.06
9740;BME280;4909;42.680;26.324;2023-04-01T04:28:38;97699.28;;;11.18;84.21
9740;BME280;4909;42.680;26.324;2023-04-01T04:31:05;97686.59;;;11.23;84.32
9740;BME280;4909;42.680;26.324;2023-04-01T04:33:33;97692.84;;;11.36;82.38
9740;BME280;4909;42.680;26.324;2023-04-01T04:36:01;97706.28;;;11.61;81.34
9740;BME280;4909;42.680;26.324;2023-04-01T04:38:28;97693.66;;;11.65;80.66
9740;BME280;4909;42.680;26.324;2023-04-01T04:40:56;97689.00;;;11.54;81.26
9740;BME280;4909;42.680;26.324;2023-04-01T04:43:23;97682.53;;;11.58;81.61
9740;BME280;4909;42.680;26.324;2023-04-01T04:45:50;97684.47;;;11.42;82.77
9740;BME280;4909;42.680;26.324;2023-04-01T04:48:17;97679.25;;;11.55;82.88
9740;BME280;4909;42.680;26.324;2023-04-01T04:50:46;97654.09;;;11.46;82.59
9740;BME280;4909;42.680;26.324;2023-04-01T04:53:14;97673.25;;;11.65;82.86
9740;BME280;4909;42.680;26.324;2023-04-01T04:55:44;97672.19;;;11.82;82.41
9740;BME280;4909;42.680;26.324;2023-04-01T04:58:13;97661.63;;;11.95;82.04
9740;BME280;4909;42.680;26.324;2023-04-01T05:00:40;97651.84;;;11.95;81.76
9740;BME280;4909;42.680;26.324;2023-04-01T05:03:06;97658.84;;;11.96;82.15
9740;BME280;4909;42.680;26.324;2023-04-01T05:05:33;97654.78;;;11.91;82.33
9740;BME280;4909;42.680;26.324;2023-04-01T05:08:00;97650.75;;;11.98;82.64
9740;BME280;4909;42.680;26.324;2023-04-01T05:10:27;97645.84;;;12.18;81.88
9740;BME280;4909;42.680;26.324;2023-04-01T05:12:54;97647.78;;;12.29;81.33
9740;BME280;4909;42.680;26.324;2023-04-01T05:15:22;97636.94;;;12.32;80.74
9740;BME280;4909;42.680;26.324;2023-04-01T05:17:49;97628.09;;;12.32;81.11
9740;BME280;4909;42.680;26.324;2023-04-01T05:20:17;97623.94;;;13.78;100.00
9740;BME280;4909;42.680;26.324;2023-04-01T05:22:43;97626.19;;;14.77;100.00
9740;BME280;4909;42.680;26.324;2023-04-01T05:25:10;97649.94;;;15.71;93.61
9740;BME280;4909;42.680;26.324;2023-04-01T05:27:37;97645.34;;;16.16;89.89
9740;BME280;4909;42.680;26.324;2023-04-01T05:30:05;97658.88;;;16.35;86.05
9740;BME280;4909;42.680;26.324;2023-04-01T05:32:33;97657.44;;;16.63;85.43
9740;BME280;4909;42.680;26.324;2023-04-01T05:35:00;97675.88;;;16.77;85.16
9740;BME280;4909;42.680;26.324;2023-04-01T05:37:27;97677.19;;;16.83;80.51
9740;BME280;4909;42.680;26.324;2023-04-01T05:39:54;97691.84;;;16.79;79.81
9740;BME280;4909;42.680;26.324;2023-04-01T05:42:20;97686.81;;;17.06;79.85
9740;BME280;4909;42.680;26.324;2023-04-01T05:44:47;97686.75;;;17.17;78.11
9740;BME280;4909;42.680;26.324;2023-04-01T05:47:14;97690.91;;;17.10;71.64
9740;BME280;4909;42.680;26.324;2023-04-01T05:49:42;97683.00;;;16.56;66.43
9740;BME280;4909;42.680;26.324;2023-04-01T05:52:09;97679.50;;;16.13;67.77
9740;BME280;4909;42.680;26.324;2023-04-01T05:54:53;97684.81;;;15.70;69.50
9740;BME280;4909;42.680;26.324;2023-04-01T05:57:20;97685.94;;;15.56;69.31
9740;BME280;4909;42.680;26.324;2023-04-01T05:59:46;97689.19;;;15.59;71.08
9740;BME280;4909;42.680;26.324;2023-04-01T06:02:16;97677.19;;;15.54;72.88
9740;BME280;4909;42.680;26.324;2023-04-01T06:04:45;97679.88;;;16.19;71.38
9740;BME280;4909;42.680;26.324;2023-04-01T06:07:12;97682.38;;;17.47;68.02
9740;BME280;4909;42.680;26.324;2023-04-01T06:09:40;97665.63;;;19.38;61.26
9740;BME280;4909;42.680;26.324;2023-04-01T06:12:27;97671.34;;;19.16;60.60
9740;BME280;4909;42.680;26.324;2023-04-01T06:15:04;97670.75;;;18.16;63.48
9740;BME280;4909;42.680;26.324;2023-04-01T06:17:52;97679.19;;;17.93;64.64
9740;BME280;4909;42.680;26.324;2023-04-01T06:20:36;97676.25;;;17.96;64.97
9740;BME280;4909;42.680;26.324;2023-04-01T06:23:25;97669.97;;;18.54;62.56
9740;BME280;4909;42.680;26.324;2023-04-01T06:26:12;97666.03;;;18.58;62.39
9740;BME280;4909;42.680;26.324;2023-04-01T06:29:01;97668.72;;;19.43;59.11
9740;BME280;4909;42.680;26.324;2023-04-01T06:34:38;97677.78;;;17.89;63.35
9740;BME280;4909;42.680;26.324;2023-04-01T06:37:46;97649.31;;;17.36;65.63
9740;BME280;4909;42.680;26.324;2023-04-01T06:40:38;97659.88;;;17.59;65.31
9740;BME280;4909;42.680;26.324;2023-04-01T06:43:13;97655.75;;;17.34;67.06
9740;BME280;4909;42.680;26.324;2023-04-01T06:45:51;97651.41;;;17.33;66.93
9740;BME280;4909;42.680;26.324;2023-04-01T06:48:40;97662.53;;;17.59;66.78
9740;BME280;4909;42.680;26.324;2023-04-01T06:51:18;97640.09;;;17.60;64.53
9740;BME280;4909;42.680;26.324;2023-04-01T06:53:54;97642.56;;;17.82;64.34
9740;BME280;4909;42.680;26.324;2023-04-01T06:56:25;97648.16;;;18.19;63.43
9740;BME280;4909;42.680;26.324;2023-04-01T06:58:56;97648.63;;;18.91;61.56
9740;BME280;4909;42.680;26.324;2023-04-01T07:01:29;97646.63;;;18.84;61.52
9740;BME280;4909;42.680;26.324;2023-04-01T07:04:00;97641.97;;;18.86;61.19
9740;BME280;4909;42.680;26.324;2023-04-01T07:06:31;97653.66;;;18.08;63.13
9740;BME280;4909;42.680;26.324;2023-04-01T07:09:02;97649.19;;;17.78;63.94
9740;BME280;4909;42.680;26.324;2023-04-01T07:11:33;97646.16;;;18.21;62.79
9740;BME280;4909;42.680;26.324;2023-04-01T07:14:03;97632.06;;;18.48;61.73
9740;BME280;4909;42.680;26.324;2023-04-01T07:16:32;97643.81;;;18.76;60.23
9740;BME280;4909;42.680;26.324;2023-04-01T07:19:03;97643.94;;;18.45;60.45
9740;BME280;4909;42.680;26.324;2023-04-01T07:21:35;97629.50;;;18.46;61.79
9740;BME280;4909;42.680;26.324;2023-04-01T07:24:06;97625.56;;;18.70;60.91
9740;BME280;4909;42.680;26.324;2023-04-01T07:26:36;97631.41;;;19.68;58.18
9740;BME280;4909;42.680;26.324;2023-04-01T07:29:06;97620.47;;;19.96;57.07
9740;BME280;4909;42.680;26.324;2023-04-01T07:34:55;97613.09;;;20.87;54.30
9740;BME280;4909;42.680;26.324;2023-04-01T07:37:31;97614.97;;;20.69;54.47
9740;BME280;4909;42.680;26.324;2023-04-01T07:40:13;97601.00;;;20.91;53.24
9740;BME280;4909;42.680;26.324;2023-04-01T07:43:07;97601.50;;;21.80;51.74
9740;BME280;4909;42.680;26.324;2023-04-01T07:45:47;97597.06;;;22.05;49.07
9740;BME280;4909;42.680;26.324;2023-04-01T07:48:24;97586.06;;;21.22;50.71
9740;BME280;4909;42.680;26.324;2023-04-01T07:50:56;97584.31;;;19.99;54.11
9740;BME280;4909;42.680;26.324;2023-04-01T07:53:31;97581.34;;;19.47;56.19
9740;BME280;4909;42.680;26.324;2023-04-01T07:56:06;97585.00;;;19.09;56.91
9740;BME280;4909;42.680;26.324;2023-04-01T07:58:40;97588.56;;;19.10;57.35
9740;BME280;4909;42.680;26.324;2023-04-01T08:01:17;97582.41;;;18.52;59.29
9740;BME280;4909;42.680;26.324;2023-04-01T08:03:58;97584.81;;;18.07;61.01
9740;BME280;4909;42.680;26.324;2023-04-01T08:06:33;97569.63;;;17.67;62.36
9740;BME280;4909;42.680;26.324;2023-04-01T08:09:07;97583.34;;;17.34;63.41
9740;BME280;4909;42.680;26.324;2023-04-01T08:11:50;97569.75;;;17.56;63.09
9740;BME280;4909;42.680;26.324;2023-04-01T08:14:24;97576.03;;;17.66;62.63
9740;BME280;4909;42.680;26.324;2023-04-01T08:17:02;97582.44;;;17.54;62.93
9740;BME280;4909;42.680;26.324;2023-04-01T08:19:39;97563.16;;;17.70;62.26
9740;BME280;4909;42.680;26.324;2023-04-01T08:22:12;97573.38;;;17.86;62.04
9740;BME280;4909;42.680;26.324;2023-04-01T08:24:44;97572.97;;;17.50;63.50
9740;BME280;4909;42.680;26.324;2023-04-01T08:27:16;97573.19;;;17.77;62.82
9740;BME280;4909;42.680;26.324;2023-04-01T08:29:49;97560.22;;;17.92;62.32
9740;BME280;4909;42.680;26.324;2023-04-01T08:32:22;97558.25;;;18.33;60.91
9740;BME280;4909;42.680;26.324;2023-04-01T08:35:01;97529.13;;;18.47;59.72
9740;BME280;4909;42.680;26.324;2023-04-01T08:37:31;97520.34;;;18.45;59.17
9740;BME280;4909;42.680;26.324;2023-04-01T08:40:02;97523.88;;;18.55;58.96
9740;BME280;4909;42.680;26.324;2023-04-01T08:42:49;97521.66;;;18.97;57.04
9740;BME280;4909;42.680;26.324;2023-04-01T08:45:44;97533.88;;;20.09;53.50
9740;BME280;4909;42.680;26.324;2023-04-01T08:54:30;97514.31;;;23.79;47.00
9740;BME280;4909;42.680;26.324;2023-04-01T08:57:08;97523.97;;;24.58;43.79
9740;BME280;4909;42.680;26.324;2023-04-01T08:59:53;97504.38;;;24.48;43.93
9740;BME280;4909;42.680;26.324;2023-04-01T09:05:47;97508.88;;;23.56;46.54
9740;BME280;4909;42.680;26.324;2023-04-01T09:08:31;97497.91;;;22.94;49.45
9740;BME280;4909;42.680;26.324;2023-04-01T09:11:08;97488.47;;;22.09;52.42
9740;BME280;4909;42.680;26.324;2023-04-01T09:14:03;97484.63;;;21.54;54.42
9740;BME280;4909;42.680;26.324;2023-04-01T09:19:35;97494.09;;;21.66;54.51
9740;BME280;4909;42.680;26.324;2023-04-01T09:22:24;97493.88;;;21.09;55.50
9740;BME280;4909;42.680;26.324;2023-04-01T09:28:10;97483.75;;;21.11;56.02
9740;BME280;4909;42.680;26.324;2023-04-01T09:30:53;97481.44;;;21.16;56.38
9740;BME280;4909;42.680;26.324;2023-04-01T09:36:37;97463.59;;;20.90;55.69
9740;BME280;4909;42.680;26.324;2023-04-01T09:39:18;97454.63;;;20.81;56.88
9740;BME280;4909;42.680;26.324;2023-04-01T09:41:56;97457.84;;;20.59;57.96
9740;BME280;4909;42.680;26.324;2023-04-01T09:44:30;97467.53;;;20.69;58.15
9740;BME280;4909;42.680;26.324;2023-04-01T09:47:15;97456.53;;;20.37;58.74
9740;BME280;4909;42.680;26.324;2023-04-01T09:50:16;97451.09;;;20.55;58.03
9740;BME280;4909;42.680;26.324;2023-04-01T09:52:52;97450.16;;;20.38;57.67
9740;BME280;4909;42.680;26.324;2023-04-01T09:56:01;97434.97;;;19.58;61.03
9740;BME280;4909;42.680;26.324;2023-04-01T09:58:45;97422.13;;;19.70;61.15
9740;BME280;4909;42.680;26.324;2023-04-01T10:01:42;97435.81;;;19.59;61.36
9740;BME280;4909;42.680;26.324;2023-04-01T10:04:36;97432.19;;;20.03;60.53
9740;BME280;4909;42.680;26.324;2023-04-01T10:07:48;97421.50;;;19.76;60.65
9740;BME280;4909;42.680;26.324;2023-04-01T10:10:54;97426.03;;;19.58;61.63
9740;BME280;4909;42.680;26.324;2023-04-01T10:13:42;97417.13;;;19.57;61.46
9740;BME280;4909;42.680;26.324;2023-04-01T10:20:08;97400.09;;;19.92;61.12
9740;BME280;4909;42.680;26.324;2023-04-01T10:22:57;97395.03;;;19.89;60.41
9740;BME280;4909;42.680;26.324;2023-04-01T10:25:44;97383.47;;;19.96;60.38
9740;BME280;4909;42.680;26.324;2023-04-01T10:28:44;97379.72;;;19.89;60.84
9740;BME280;4909;42.680;26.324;2023-04-01T10:31:30;97373.16;;;19.92;61.01
9740;BME280;4909;42.680;26.324;2023-04-01T10:37:29;97350.63;;;19.93;60.38
9740;BME280;4909;42.680;26.324;2023-04-01T10:40:35;97353.56;;;19.82;61.58
9740;BME280;4909;42.680;26.324;2023-04-01T10:49:43;97346.28;;;19.39;64.85
9740;BME280;4909;42.680;26.324;2023-04-01T10:52:28;97340.31;;;19.63;66.92
9740;BME280;4909;42.680;26.324;2023-04-01T10:55:14;97330.00;;;19.58;64.70
9740;BME280;4909;42.680;26.324;2023-04-01T10:58:10;97302.72;;;19.35;64.37
9740;BME280;4909;42.680;26.324;2023-04-01T11:01:07;97298.47;;;19.68;63.25
9740;BME280;4909;42.680;26.324;2023-04-01T11:07:15;97305.16;;;19.46;63.83
9740;BME280;4909;42.680;26.324;2023-04-01T11:13:23;97283.59;;;19.21;65.77
9740;BME280;4909;42.680;26.324;2023-04-01T11:16:21;97277.41;;;19.28;65.44
9740;BME280;4909;42.680;26.324;2023-04-01T11:22:20;97281.69;;;19.57;65.18
9740;BME280;4909;42.680;26.324;2023-04-01T11:30:49;97263.38;;;20.12;62.93
9740;BME280;4909;42.680;26.324;2023-04-01T11:33:24;97260.59;;;19.95;63.25
9740;BME280;4909;42.680;26.324;2023-04-01T11:36:03;97261.19;;;20.15;62.92
9740;BME280;4909;42.680;26.324;2023-04-01T11:41:53;97253.47;;;20.54;61.83
9740;BME280;4909;42.680;26.324;2023-04-01T11:44:25;97248.22;;;20.45;61.21
9740;BME280;4909;42.680;26.324;2023-04-01T11:47:07;97236.78;;;20.43;62.13
9740;BME280;4909;42.680;26.324;2023-04-01T11:49:49;97231.25;;;20.60;61.61
9740;BME280;4909;42.680;26.324;2023-04-01T11:52:33;97226.06;;;20.67;61.47
9740;BME280;4909;42.680;26.324;2023-04-01T11:58:29;97209.25;;;20.89;59.58
9740;BME280;4909;42.680;26.324;2023-04-01T12:01:14;97201.16;;;20.23;61.76
9740;BME280;4909;42.680;26.324;2023-04-01T12:04:02;97193.72;;;20.17;62.15
9740;BME280;4909;42.680;26.324;2023-04-01T12:06:37;97175.69;;;20.17;62.13
9740;BME280;4909;42.680;26.324;2023-04-01T12:09:14;97188.28;;;20.59;61.09
9740;BME280;4909;42.680;26.324;2023-04-01T12:11:51;97194.69;;;20.58;61.01
9740;BME280;4909;42.680;26.324;2023-04-01T12:14:27;97185.81;;;20.81;60.38
9740;BME280;4909;42.680;26.324;2023-04-01T12:17:03;97186.50;;;21.16;59.38
9740;BME280;4909;42.680;26.324;2023-04-01T12:19:43;97174.88;;;21.32;58.87
9740;BME280;4909;42.680;26.324;2023-04-01T12:22:31;97171.19;;;21.24;58.63
9740;BME280;4909;42.680;26.324;2023-04-01T12:25:14;97165.44;;;21.19;58.75
9740;BME280;4909;42.680;26.324;2023-04-01T12:27:59;97155.63;;;20.94;59.09
9740;BME280;4909;42.680;26.324;2023-04-01T12:30:37;97149.91;;;20.89;59.63
9740;BME280;4909;42.680;26.324;2023-04-01T12:33:26;97150.06;;;20.63;60.45
9740;BME280;4909;42.680;26.324;2023-04-01T12:36:10;97141.97;;;20.63;60.05
9740;BME280;4909;42.680;26.324;2023-04-01T12:38:48;97144.84;;;20.78;60.62
9740;BME280;4909;42.680;26.324;2023-04-01T12:41:24;97143.00;;;20.70;59.99
9740;BME280;4909;42.680;26.324;2023-04-01T12:44:19;97126.63;;;20.64;60.79
9740;BME280;4909;42.680;26.324;2023-04-01T12:47:06;97130.34;;;20.63;59.68
9740;BME280;4909;42.680;26.324;2023-04-01T12:49:55;97130.00;;;20.74;59.59
9740;BME280;4909;42.680;26.324;2023-04-01T12:52:33;97130.34;;;20.55;60.06
9740;BME280;4909;42.680;26.324;2023-04-01T12:55:23;97136.78;;;20.20;61.95
9740;BME280;4909;42.680;26.324;2023-04-01T12:58:07;97136.22;;;19.92;63.32
9740;BME280;4909;42.680;26.324;2023-04-01T13:00:56;97133.75;;;20.07;63.14
9740;BME280;4909;42.680;26.324;2023-04-01T13:03:45;97125.94;;;19.95;63.51
9740;BME280;4909;42.680;26.324;2023-04-01T13:06:25;97126.50;;;20.07;63.59
9740;BME280;4909;42.680;26.324;2023-04-01T13:09:07;97130.06;;;20.24;63.41
9740;BME280;4909;42.680;26.324;2023-04-01T13:11:52;97123.81;;;20.07;61.95
9740;BME280;4909;42.680;26.324;2023-04-01T13:17:32;97130.84;;;20.00;58.76
9740;BME280;4909;42.680;26.324;2023-04-01T13:20:03;97128.78;;;19.86;58.27
9740;BME280;4909;42.680;26.324;2023-04-01T13:22:45;97105.16;;;19.72;58.38
9740;BME280;4909;42.680;26.324;2023-04-01T13:25:23;97116.81;;;19.80;57.80
9740;BME280;4909;42.680;26.324;2023-04-01T13:27:56;97083.75;;;19.54;58.11
9740;BME280;4909;42.680;26.324;2023-04-01T13:30:30;97108.91;;;19.79;58.65
9740;BME280;4909;42.680;26.324;2023-04-01T13:33:04;97100.88;;;19.95;57.67
9740;BME280;4909;42.680;26.324;2023-04-01T13:35:39;97095.13;;;19.90;57.74
9740;BME280;4909;42.680;26.324;2023-04-01T13:38:46;97086.44;;;20.04;57.97
9740;BME280;4909;42.680;26.324;2023-04-01T13:41:25;97091.00;;;20.20;57.33
9740;BME280;4909;42.680;26.324;2023-04-01T13:44:00;97085.63;;;20.20;57.46
9740;BME280;4909;42.680;26.324;2023-04-01T13:46:41;97082.75;;;20.21;56.96
9740;BME280;4909;42.680;26.324;2023-04-01T13:58:27;97062.47;;;19.85;58.95
9740;BME280;4909;42.680;26.324;2023-04-01T14:01:05;97059.13;;;19.91;58.82
9740;BME280;4909;42.680;26.324;2023-04-01T14:04:01;97047.34;;;19.84;58.83
9740;BME280;4909;42.680;26.324;2023-04-01T14:06:40;97044.97;;;19.81;59.37
9740;BME280;4909;42.680;26.324;2023-04-01T14:09:40;97045.47;;;19.76;58.40
9740;BME280;4909;42.680;26.324;2023-04-01T14:12:16;97040.06;;;19.68;56.98
9740;BME280;4909;42.680;26.324;2023-04-01T14:15:03;97043.53;;;19.61;57.52
9740;BME280;4909;42.680;26.324;2023-04-01T14:17:46;97031.63;;;19.63;56.96
9740;BME280;4909;42.680;26.324;2023-04-01T14:20:26;97029.06;;;19.53;57.05
9740;BME280;4909;42.680;26.324;2023-04-01T14:23:13;97035.81;;;19.58;56.81
9740;BME280;4909;42.680;26.324;2023-04-01T14:25:58;97028.44;;;19.60;57.04
9740;BME280;4909;42.680;26.324;2023-04-01T14:28:36;97019.66;;;19.58;56.73
9740;BME280;4909;42.680;26.324;2023-04-01T14:34:11;97008.41;;;19.54;57.19
9740;BME280;4909;42.680;26.324;2023-04-01T14:39:41;96997.00;;;19.26;57.90
9740;BME280;4909;42.680;26.324;2023-04-01T14:42:38;96987.06;;;19.27;57.89
9740;BME280;4909;42.680;26.324;2023-04-01T14:45:40;96971.28;;;19.32;57.68
9740;BME280;4909;42.680;26.324;2023-04-01T14:48:21;96968.78;;;19.30;58.00
9740;BME280;4909;42.680;26.324;2023-04-01T14:50:51;96966.38;;;19.27;58.29
9740;BME280;4909;42.680;26.324;2023-04-01T14:53:27;96965.16;;;19.14;58.23
9740;BME280;4909;42.680;26.324;2023-04-01T14:55:55;96962.69;;;19.20;58.42
9740;BME280;4909;42.680;26.324;2023-04-01T14:58:40;96952.34;;;19.07;58.41
9740;BME280;4909;42.680;26.324;2023-04-01T15:01:19;96960.41;;;19.07;58.35
9740;BME280;4909;42.680;26.324;2023-04-01T15:03:58;96983.25;;;19.03;58.37
9740;BME280;4909;42.680;26.324;2023-04-01T15:06:48;96974.69;;;19.00;58.99
9740;BME280;4909;42.680;26.324;2023-04-01T15:09:26;96982.06;;;18.98;59.03
9740;BME280;4909;42.680;26.324;2023-04-01T15:12:06;96980.44;;;19.13;58.27
9740;BME280;4909;42.680;26.324;2023-04-01T15:14:48;96980.78;;;19.10;58.24
9740;BME280;4909;42.680;26.324;2023-04-01T15:17:41;96980.94;;;19.08;58.67
9740;BME280;4909;42.680;26.324;2023-04-01T15:20:25;96986.63;;;18.97;58.96